createdAt,value
2022-09-27T00:00:44.715Z,52.40
2022-09-27T00:03:12.309Z,51.99
2022-09-27T00:05:39.414Z,52.18
2022-09-27T00:08:06.528Z,52.57
2022-09-27T00:10:33.302Z,52.60
2022-09-27T00:13:00.115Z,52.12
2022-09-27T00:15:27.128Z,52.45
2022-09-27T00:17:53.904Z,52.12
2022-09-27T00:20:21.234Z,52.44
2022-09-27T00:22:49.007Z,52.28
2022-09-27T00:25:18.319Z,52.49
2022-09-27T00:27:45.217Z,52.40
2022-09-27T00:30:12.523Z,52.50
2022-09-27T00:32:39.605Z,52.15
2022-09-27T00:35:06.544Z,52.24
2022-09-27T00:37:33.414Z,52.41
2022-09-27T00:40:00.220Z,52.37
2022-09-27T00:42:26.952Z,52.31
2022-09-27T00:45:17.981Z,52.28
2022-09-27T00:47:50.586Z,52.13
2022-09-27T00:50:38.020Z,52.86
2022-09-27T00:53:31.059Z,52.50
2022-09-27T00:56:01.323Z,52.49
2022-09-27T00:58:34.527Z,52.16
2022-09-27T01:01:03.871Z,51.98
2022-09-27T01:03:47.720Z,52.56
2022-09-27T01:06:14.838Z,52.18
2022-09-27T01:08:41.495Z,52.33
2022-09-27T01:11:08.337Z,52.42
2022-09-27T01:13:59.207Z,52.47
2022-09-27T01:16:43.180Z,52.16
2022-09-27T01:19:19.971Z,52.08
2022-09-27T01:22:16.287Z,52.39
2022-09-27T01:25:07.306Z,52.34
2022-09-27T01:28:05.455Z,52.20
2022-09-27T01:30:45.617Z,52.51
2022-09-27T01:33:36.920Z,52.48
2022-09-27T01:36:31.135Z,52.19
2022-09-27T01:39:13.733Z,52.25
2022-09-27T01:42:03.386Z,52.29
2022-09-27T01:44:51.811Z,52.36
2022-09-27T01:47:23.787Z,52.44
2022-09-27T01:50:09.331Z,52.46
2022-09-27T01:52:51.002Z,51.99
2022-09-27T01:55:26.696Z,52.54
2022-09-27T01:58:46.268Z,52.38
2022-09-27T02:01:14.524Z,52.52
2022-09-27T02:03:44.922Z,52.15
2022-09-27T02:06:33.911Z,52.40
2022-09-27T02:09:20.551Z,52.24
2022-09-27T02:11:56.459Z,52.36
2022-09-27T02:14:33.559Z,52.26
2022-09-27T02:17:21.816Z,52.16
2022-09-27T02:20:05.230Z,52.31
2022-09-27T02:22:48.217Z,52.05
2022-09-27T02:25:25.832Z,52.49
2022-09-27T02:28:05.014Z,52.32
2022-09-27T02:30:34.462Z,52.54
2022-09-27T02:33:14.960Z,52.23
2022-09-27T02:35:42.245Z,52.02
2022-09-27T02:38:09.062Z,52.72
2022-09-27T02:40:44.404Z,52.53
2022-09-27T02:43:12.577Z,52.63
2022-09-27T02:45:58.369Z,52.87
2022-09-27T02:48:41.697Z,52.39
2022-09-27T02:51:17.670Z,52.47
2022-09-27T02:54:10.731Z,52.50
2022-09-27T02:57:17.580Z,52.73
2022-09-27T03:00:16.286Z,52.38
2022-09-27T03:03:16.386Z,52.50
2022-09-27T03:06:09.819Z,52.82
2022-09-27T03:08:43.938Z,52.60
2022-09-27T03:11:11.320Z,52.52
2022-09-27T03:13:55.787Z,52.54
2022-09-27T03:16:26.663Z,52.45
2022-09-27T03:19:07.123Z,52.58
2022-09-27T03:21:54.127Z,52.62
2022-09-27T03:24:20.842Z,52.57
2022-09-27T03:26:47.571Z,52.48
2022-09-27T03:29:15.221Z,52.41
2022-09-27T03:31:45.923Z,52.46
2022-09-27T03:34:35.630Z,52.44
2022-09-27T03:37:02.416Z,52.29
2022-09-27T03:39:29.296Z,52.21
2022-09-27T03:41:56.555Z,52.17
2022-09-27T03:44:23.285Z,52.23
2022-09-27T03:46:50.027Z,52.31
2022-09-27T03:49:17.661Z,52.78
2022-09-27T03:51:44.381Z,52.26
2022-09-27T03:54:11.069Z,52.33
2022-09-27T03:56:37.854Z,52.59
2022-09-27T03:59:04.568Z,52.61
2022-09-27T04:01:51.346Z,52.25
2022-09-27T04:04:38.134Z,52.10
2022-09-27T04:07:04.924Z,52.63
2022-09-27T04:09:31.645Z,52.57
2022-09-27T04:12:01.266Z,52.17
2022-09-27T04:14:27.990Z,52.54
2022-09-27T04:17:17.208Z,52.54
2022-09-27T04:20:03.399Z,52.58
2022-09-27T04:22:31.217Z,52.42
2022-09-27T04:24:58.172Z,52.25
2022-09-27T04:27:34.531Z,52.54
2022-09-27T04:30:01.718Z,52.42
2022-09-27T04:32:54.175Z,52.29
2022-09-27T04:36:08.483Z,52.20
2022-09-27T04:38:42.991Z,52.14
2022-09-27T04:41:10.496Z,52.46
2022-09-27T04:43:39.767Z,52.49
2022-09-27T04:46:07.029Z,52.39
2022-09-27T04:48:34.383Z,52.44
2022-09-27T04:51:02.524Z,52.05
2022-09-27T04:53:29.995Z,51.93
2022-09-27T04:55:58.608Z,52.97
2022-09-27T04:58:25.570Z,53.32
2022-09-27T05:00:52.472Z,53.89
2022-09-27T05:03:45.074Z,54.52
2022-09-27T05:06:13.732Z,54.87
2022-09-27T05:08:41.426Z,55.01
2022-09-27T05:11:29.451Z,55.25
2022-09-27T05:17:08.047Z,56.49
2022-09-27T05:19:46.965Z,56.26
2022-09-27T05:22:28.149Z,56.22
2022-09-27T05:25:05.557Z,56.38
2022-09-27T05:27:33.135Z,56.04
2022-09-27T05:30:01.902Z,56.44
2022-09-27T05:32:48.144Z,56.16
2022-09-27T05:35:26.615Z,56.60
2022-09-27T05:37:59.104Z,56.58
2022-09-27T05:40:40.950Z,56.77
2022-09-27T05:43:09.563Z,56.63
2022-09-27T05:45:36.846Z,56.86
2022-09-27T05:48:05.442Z,56.48
2022-09-27T05:50:36.711Z,56.67
2022-09-27T05:53:03.880Z,56.40
2022-09-27T05:55:30.568Z,56.77
2022-09-27T05:58:00.550Z,56.49
2022-09-27T06:00:38.335Z,56.13
2022-09-27T06:03:20.354Z,56.35
2022-09-27T06:06:23.807Z,56.31
2022-09-27T06:08:55.583Z,56.54
2022-09-27T06:11:24.274Z,56.36
2022-09-27T06:13:50.963Z,56.25
2022-09-27T06:16:17.713Z,56.53
2022-09-27T06:18:45.715Z,56.35
2022-09-27T06:21:13.471Z,56.28
2022-09-27T06:23:44.257Z,56.19
2022-09-27T06:26:20.250Z,56.49
2022-09-27T06:28:54.957Z,56.64
2022-09-27T06:31:22.346Z,56.26
2022-09-27T06:33:52.935Z,56.92
2022-09-27T06:36:20.406Z,57.04
2022-09-27T06:38:48.291Z,56.49
2022-09-27T06:41:25.873Z,56.36
2022-09-27T06:44:16.613Z,56.27
2022-09-27T06:46:43.427Z,55.92
2022-09-27T06:49:43.567Z,56.38
2022-09-27T06:52:10.852Z,56.36
2022-09-27T06:54:37.548Z,56.21
2022-09-27T06:57:04.327Z,56.15
2022-09-27T06:59:49.662Z,56.50
2022-09-27T07:02:34.928Z,56.43
2022-09-27T07:05:14.862Z,56.23
2022-09-27T07:07:49.116Z,56.44
2022-09-27T07:10:18.858Z,55.84
2022-09-27T07:12:48.885Z,56.14
2022-09-27T07:15:16.894Z,56.16
2022-09-27T07:17:44.179Z,55.99
2022-09-27T07:20:11.766Z,56.01
2022-09-27T07:22:44.184Z,55.73
2022-09-27T07:25:12.113Z,55.91
2022-09-27T07:27:41.250Z,55.69
2022-09-27T07:30:10.646Z,55.48
2022-09-27T07:32:38.055Z,55.59
2022-09-27T07:35:08.594Z,55.47
2022-09-27T07:37:37.423Z,55.54
2022-09-27T07:40:07.447Z,55.58
2022-09-27T07:42:34.626Z,55.71
2022-09-27T07:45:01.272Z,55.38
2022-09-27T07:48:11.529Z,55.54
2022-09-27T07:51:08.423Z,54.97
2022-09-27T07:53:47.823Z,55.05
2022-09-27T07:56:35.604Z,54.95
2022-09-27T07:59:04.311Z,55.16
2022-09-27T08:01:31.100Z,55.03
2022-09-27T08:03:58.665Z,54.90
2022-09-27T08:06:26.305Z,55.03
2022-09-27T08:08:54.916Z,54.22
2022-09-27T08:11:22.163Z,54.94
2022-09-27T08:13:52.529Z,54.97
2022-09-27T08:16:23.042Z,54.83
2022-09-27T08:19:26.961Z,54.70
2022-09-27T08:22:07.386Z,54.58
2022-09-27T08:24:57.569Z,54.88
2022-09-27T08:27:39.372Z,54.67
2022-09-27T08:30:18.875Z,54.45
2022-09-27T08:32:45.713Z,55.01
2022-09-27T08:35:15.607Z,54.73
2022-09-27T08:37:42.461Z,54.05
2022-09-27T08:40:14.393Z,54.38
2022-09-27T08:42:50.436Z,54.71
2022-09-27T08:45:29.779Z,54.73
2022-09-27T08:48:00.286Z,54.67
2022-09-27T08:50:40.178Z,54.76
2022-09-27T08:53:34.174Z,54.10
2022-09-27T08:56:03.407Z,54.00
2022-09-27T08:58:46.599Z,54.50
2022-09-27T09:01:22.989Z,54.41
2022-09-27T09:04:04.433Z,54.65
2022-09-27T09:06:44.070Z,55.14
2022-09-27T09:09:43.560Z,54.92
2022-09-27T09:12:47.310Z,55.05
2022-09-27T09:15:58.188Z,55.00
2022-09-27T09:19:00.664Z,55.24
2022-09-27T09:22:02.838Z,55.49
2022-09-27T09:24:37.400Z,55.51
2022-09-27T09:27:25.407Z,55.26
2022-09-27T09:30:18.595Z,55.56
2022-09-27T09:32:58.352Z,55.10
2022-09-27T09:35:31.174Z,55.52
2022-09-27T09:38:01.847Z,54.80
2022-09-27T09:40:30.240Z,55.04
2022-09-27T09:43:31.196Z,54.96
2022-09-27T09:46:04.044Z,54.68
2022-09-27T09:48:47.038Z,54.55
2022-09-27T09:51:19.192Z,54.38
2022-09-27T09:53:51.968Z,54.47
2022-09-27T09:56:28.479Z,54.75
2022-09-27T09:59:02.585Z,54.24
2022-09-27T10:01:44.813Z,54.72
2022-09-27T10:04:19.034Z,54.49
2022-09-27T10:06:46.173Z,54.46
2022-09-27T10:09:17.950Z,53.95
2022-09-27T10:12:07.529Z,54.32
2022-09-27T10:14:35.650Z,54.43
2022-09-27T10:17:09.621Z,54.90
2022-09-27T10:19:39.531Z,54.05
2022-09-27T10:22:25.124Z,55.45
2022-09-27T10:25:06.757Z,55.58
2022-09-27T10:27:59.115Z,55.15
2022-09-27T10:30:32.598Z,54.82
2022-09-27T10:33:17.814Z,55.06
2022-09-27T10:35:49.473Z,54.83
2022-09-27T10:38:33.305Z,55.40
2022-09-27T10:41:34.782Z,55.08
2022-09-27T10:44:18.192Z,55.21
2022-09-27T10:46:50.562Z,55.39
2022-09-27T10:49:41.534Z,55.28
2022-09-27T10:52:34.228Z,54.92
2022-09-27T10:55:24.763Z,54.52
2022-09-27T10:57:55.216Z,54.84
2022-09-27T11:00:42.761Z,55.34
2022-09-27T11:03:16.344Z,55.44
2022-09-27T11:05:44.803Z,54.87
2022-09-27T11:08:24.163Z,54.85
2022-09-27T11:11:27.570Z,55.08
2022-09-27T11:14:07.955Z,54.66
2022-09-27T11:16:46.069Z,54.74
2022-09-27T11:19:23.271Z,54.62
2022-09-27T11:21:59.394Z,54.33
2022-09-27T11:25:03.216Z,54.27
2022-09-27T11:28:12.696Z,54.07
2022-09-27T11:30:45.771Z,53.96
2022-09-27T11:34:00.270Z,53.62
2022-09-27T11:36:47.536Z,53.65
2022-09-27T11:39:36.878Z,53.86
2022-09-27T11:42:16.830Z,54.00
2022-09-27T11:44:53.355Z,53.80
2022-09-27T11:48:16.595Z,54.34
2022-09-27T11:51:18.853Z,53.97
2022-09-27T11:54:20.998Z,54.17
2022-09-27T11:56:58.575Z,54.54
2022-09-27T12:00:02.240Z,54.45
2022-09-27T12:03:02.706Z,54.94
2022-09-27T12:05:58.290Z,54.93
2022-09-27T12:08:45.007Z,55.25
2022-09-27T12:11:23.481Z,55.09
2022-09-27T12:14:05.732Z,55.70
2022-09-27T12:16:33.082Z,55.64
2022-09-27T12:19:02.103Z,56.17
2022-09-27T12:21:50.587Z,56.34
2022-09-27T12:24:24.264Z,56.07
2022-09-27T12:27:35.246Z,56.27
2022-09-27T12:30:03.182Z,55.90
2022-09-27T12:32:38.717Z,56.36
2022-09-27T12:35:26.737Z,55.82
2022-09-27T12:37:59.497Z,55.87
2022-09-27T12:40:41.207Z,56.25
2022-09-27T12:43:19.361Z,56.66
2022-09-27T12:46:15.661Z,56.67
2022-09-27T12:49:15.190Z,56.26
2022-09-27T12:51:56.352Z,56.21
2022-09-27T12:54:37.677Z,56.16
2022-09-27T12:57:14.618Z,56.03
2022-09-27T13:00:16.514Z,55.50
2022-09-27T13:03:26.568Z,55.34
2022-09-27T13:06:24.903Z,55.26
2022-09-27T13:09:10.917Z,55.21
2022-09-27T13:12:03.547Z,55.12
2022-09-27T13:14:38.426Z,55.05
2022-09-27T13:17:05.395Z,54.81
2022-09-27T13:19:45.705Z,55.10
2022-09-27T13:22:27.630Z,55.11
2022-09-27T13:25:54.275Z,55.19
2022-09-27T13:28:58.329Z,54.80
2022-09-27T13:31:53.888Z,54.76
2022-09-27T13:34:48.194Z,54.14
2022-09-27T13:37:43.051Z,54.36
2022-09-27T13:40:15.951Z,54.31
2022-09-27T13:43:13.343Z,53.94
2022-09-27T13:45:55.295Z,54.59
2022-09-27T13:48:43.886Z,55.01
2022-09-27T13:51:17.141Z,54.69
2022-09-27T13:53:56.998Z,54.86
2022-09-27T13:56:46.771Z,54.73
2022-09-27T13:59:17.677Z,54.71
2022-09-27T14:01:50.601Z,55.02
2022-09-27T14:04:28.113Z,55.39
2022-09-27T14:07:02.412Z,55.00
2022-09-27T14:09:32.179Z,55.07
2022-09-27T14:12:16.534Z,55.46
2022-09-27T14:14:43.630Z,55.36
2022-09-27T14:17:10.788Z,55.46
2022-09-27T14:19:43.953Z,55.44
2022-09-27T14:22:18.315Z,55.61
2022-09-27T14:25:16.828Z,55.69
2022-09-27T14:27:45.248Z,56.02
2022-09-27T14:30:32.030Z,56.27
2022-09-27T14:33:29.918Z,56.28
2022-09-27T14:36:21.701Z,55.37
2022-09-27T14:38:53.006Z,55.39
2022-09-27T14:41:26.391Z,55.76
2022-09-27T14:43:53.819Z,55.83
2022-09-27T14:46:29.180Z,56.08
2022-09-27T14:48:56.455Z,56.30
2022-09-27T14:51:31.962Z,56.74
2022-09-27T14:54:05.601Z,56.37
2022-09-27T14:56:36.206Z,56.43
2022-09-27T14:59:05.669Z,56.41
2022-09-27T15:01:33.024Z,55.99
2022-09-27T15:04:07.930Z,56.04
2022-09-27T15:06:37.884Z,56.56
2022-09-27T15:09:06.284Z,56.50
2022-09-27T15:11:34.757Z,56.82
2022-09-27T15:14:03.326Z,56.93
2022-09-27T15:16:31.321Z,56.99
2022-09-27T15:19:03.839Z,56.92
2022-09-27T15:21:35.502Z,56.91
2022-09-27T15:24:03.179Z,57.03
2022-09-27T15:26:59.378Z,57.04
2022-09-27T15:29:26.550Z,56.92
2022-09-27T15:32:07.207Z,56.94
2022-09-27T15:34:34.444Z,57.10
2022-09-27T15:37:06.282Z,57.23
2022-09-27T15:39:35.307Z,57.64
2022-09-27T15:42:19.856Z,57.33
2022-09-27T15:44:49.649Z,57.67
2022-09-27T15:47:40.792Z,57.91
2022-09-27T15:50:16.619Z,57.80
2022-09-27T15:52:50.827Z,57.22
2022-09-27T15:55:19.772Z,57.81
2022-09-27T15:57:50.648Z,57.87
2022-09-27T16:00:18.707Z,58.20
2022-09-27T16:02:46.017Z,57.84
2022-09-27T16:05:13.814Z,58.07
2022-09-27T16:07:40.744Z,58.38
2022-09-27T16:10:18.984Z,58.60
2022-09-27T16:12:45.875Z,58.45
2022-09-27T16:15:13.870Z,58.60
2022-09-27T16:17:42.761Z,59.04
2022-09-27T16:20:25.105Z,58.53
2022-09-27T16:22:52.880Z,58.75
2022-09-27T16:25:20.514Z,58.86
2022-09-27T16:27:47.480Z,58.36
2022-09-27T16:30:14.643Z,58.69
2022-09-27T16:32:45.915Z,58.51
2022-09-27T16:35:16.087Z,58.53
2022-09-27T16:37:43.057Z,58.26
2022-09-27T16:40:11.052Z,58.09
2022-09-27T16:42:38.193Z,58.23
2022-09-27T16:45:10.517Z,58.31
2022-09-27T16:47:38.699Z,58.01
2022-09-27T16:50:24.478Z,58.32
2022-09-27T16:52:52.367Z,58.31
2022-09-27T16:55:20.817Z,58.06
2022-09-27T16:57:48.726Z,57.94
2022-09-27T17:00:16.030Z,58.26
2022-09-27T17:02:47.117Z,57.99
2022-09-27T17:05:14.754Z,57.67
2022-09-27T17:07:41.430Z,57.99
2022-09-27T17:10:09.191Z,57.71
2022-09-27T17:12:36.119Z,57.86
2022-09-27T17:15:02.923Z,58.21
2022-09-27T17:17:29.961Z,58.31
2022-09-27T17:19:56.805Z,57.96
2022-09-27T17:22:23.590Z,57.79
2022-09-27T17:24:51.271Z,57.77
2022-09-27T17:27:18.270Z,58.07
2022-09-27T17:29:45.200Z,57.96
2022-09-27T17:32:13.672Z,57.83
2022-09-27T17:34:43.661Z,57.73
2022-09-27T17:37:13.754Z,57.99
2022-09-27T17:39:41.819Z,57.78
2022-09-27T17:42:08.607Z,57.95
2022-09-27T17:44:37.246Z,57.60
2022-09-27T17:47:23.094Z,58.02
2022-09-27T17:50:08.404Z,58.42
2022-09-27T17:52:35.298Z,58.34
2022-09-27T17:55:03.431Z,58.05
2022-09-27T17:57:30.458Z,58.04
2022-09-27T17:59:58.048Z,58.32
2022-09-27T18:02:25.721Z,58.09
2022-09-27T18:04:52.731Z,57.82
2022-09-27T18:07:20.118Z,58.06
2022-09-27T18:09:47.111Z,58.02
2022-09-27T18:12:14.627Z,58.06
2022-09-27T18:14:41.882Z,57.94
2022-09-27T18:17:13.033Z,57.65
2022-09-27T18:19:40.432Z,57.96
2022-09-27T18:22:07.377Z,57.54
2022-09-27T18:24:34.149Z,57.73
2022-09-27T18:27:02.182Z,57.73
2022-09-27T18:29:29.105Z,57.31
2022-09-27T18:31:55.824Z,57.76
2022-09-27T18:34:23.606Z,57.25
2022-09-27T18:36:50.238Z,57.32
2022-09-27T18:39:21.112Z,57.49
2022-09-27T18:41:51.597Z,57.15
2022-09-27T18:44:18.612Z,57.15
2022-09-27T18:46:55.458Z,57.18
2022-09-27T18:49:25.751Z,56.92
2022-09-27T18:51:54.893Z,57.27
2022-09-27T18:54:22.683Z,57.19
2022-09-27T18:56:50.627Z,56.81
2022-09-27T18:59:17.604Z,56.85
2022-09-27T19:01:48.055Z,57.11
2022-09-27T19:04:21.482Z,57.08
2022-09-27T19:06:50.841Z,56.89
2022-09-27T19:09:17.783Z,57.11
2022-09-27T19:11:45.172Z,56.93
2022-09-27T19:14:17.107Z,56.77
2022-09-27T19:16:46.959Z,56.70
2022-09-27T19:19:17.235Z,56.69
2022-09-27T19:21:44.354Z,56.84
2022-09-27T19:24:11.887Z,56.64
2022-09-27T19:26:38.648Z,56.83
2022-09-27T19:29:06.457Z,56.82
2022-09-27T19:31:33.943Z,56.50
2022-09-27T19:34:00.895Z,56.86
2022-09-27T19:36:28.019Z,56.86
2022-09-27T19:38:58.502Z,56.41
2022-09-27T19:41:25.933Z,56.38
2022-09-27T19:43:53.442Z,56.87
2022-09-27T19:46:21.183Z,56.50
2022-09-27T19:48:49.163Z,56.84
2022-09-27T19:51:18.195Z,56.51
2022-09-27T19:53:45.391Z,56.70
2022-09-27T19:56:12.746Z,56.52
2022-09-27T19:58:40.997Z,56.44
2022-09-27T20:01:12.787Z,56.11
2022-09-27T20:03:41.200Z,56.40
2022-09-27T20:06:10.214Z,56.49
2022-09-27T20:08:37.070Z,56.62
2022-09-27T20:11:09.250Z,56.48
2022-09-27T20:13:37.068Z,56.56
2022-09-27T20:16:05.966Z,56.35
2022-09-27T20:18:33.196Z,56.16
2022-09-27T20:21:02.172Z,56.53
2022-09-27T20:23:29.775Z,56.37
2022-09-27T20:26:04.133Z,56.28
2022-09-27T20:28:30.876Z,56.35
2022-09-27T20:31:02.210Z,56.46
2022-09-27T20:33:41.316Z,56.26
2022-09-27T20:36:15.718Z,56.53
2022-09-27T20:38:54.506Z,56.27
2022-09-27T20:41:24.818Z,56.20
2022-09-27T20:43:54.040Z,56.57
2022-09-27T20:46:21.167Z,56.62
2022-09-27T20:48:52.283Z,56.48
2022-09-27T20:51:19.094Z,56.52
2022-09-27T20:53:49.334Z,56.30
2022-09-27T20:56:27.725Z,56.32
2022-09-27T20:58:55.638Z,56.54
2022-09-27T21:01:23.856Z,56.63
2022-09-27T21:03:57.731Z,56.33
2022-09-27T21:06:24.858Z,56.30
2022-09-27T21:08:51.811Z,56.69
2022-09-27T21:11:19.310Z,56.63
2022-09-27T21:13:47.317Z,56.71
2022-09-27T21:16:26.462Z,56.44
2022-09-27T21:18:55.019Z,56.44
2022-09-27T21:21:22.566Z,56.43
2022-09-27T21:23:54.187Z,56.43
2022-09-27T21:26:22.096Z,56.55
2022-09-27T21:28:51.006Z,56.29
2022-09-27T21:31:23.274Z,56.62
2022-09-27T21:33:55.041Z,56.45
2022-09-27T21:36:23.604Z,56.63
2022-09-27T21:38:50.927Z,56.37
2022-09-27T21:41:18.162Z,56.75
2022-09-27T21:43:46.740Z,56.68
2022-09-27T21:46:15.644Z,56.63
2022-09-27T21:48:44.892Z,56.28
2022-09-27T21:51:28.656Z,56.71
2022-09-27T21:54:02.912Z,56.25
2022-09-27T21:56:33.570Z,56.28
2022-09-27T21:59:00.212Z,56.40
2022-09-27T22:01:29.635Z,56.40
2022-09-27T22:03:57.060Z,56.21
2022-09-27T22:06:26.123Z,56.44
2022-09-27T22:08:53.820Z,56.44
2022-09-27T22:11:22.896Z,56.77
2022-09-27T22:13:49.964Z,56.74
2022-09-27T22:16:18.490Z,56.71
2022-09-27T22:18:49.328Z,56.63
2022-09-27T22:21:18.635Z,56.80
2022-09-27T22:23:45.597Z,56.38
2022-09-27T22:26:13.749Z,56.59
2022-09-27T22:28:40.823Z,56.57
2022-09-27T22:31:08.571Z,56.51
2022-09-27T22:33:35.570Z,56.69
2022-09-27T22:36:02.662Z,56.69
2022-09-27T22:38:30.513Z,56.36
2022-09-27T22:40:59.806Z,56.62
2022-09-27T22:43:28.549Z,56.73
2022-09-27T22:45:56.390Z,56.65
2022-09-27T22:48:23.244Z,56.83
2022-09-27T22:50:49.853Z,56.69
2022-09-27T22:53:16.604Z,56.68
2022-09-27T22:55:43.263Z,56.71
2022-09-27T22:58:09.965Z,56.85
2022-09-27T23:00:38.685Z,56.37
2022-09-27T23:03:05.522Z,56.61
2022-09-27T23:05:32.170Z,56.36
2022-09-27T23:07:58.878Z,56.62
2022-09-27T23:10:25.527Z,56.50
2022-09-27T23:12:55.110Z,56.70
2022-09-27T23:15:21.848Z,56.30
2022-09-27T23:17:51.754Z,56.78
2022-09-27T23:20:18.920Z,56.73
2022-09-27T23:22:45.632Z,56.30
2022-09-27T23:25:12.712Z,56.67
2022-09-27T23:27:42.140Z,56.24
2022-09-27T23:30:10.176Z,56.45
2022-09-27T23:32:37.012Z,56.37
2022-09-27T23:35:04.092Z,56.38
2022-09-27T23:37:30.824Z,56.32
2022-09-27T23:39:57.559Z,56.61
2022-09-27T23:42:24.208Z,56.70
2022-09-27T23:44:52.683Z,56.34
2022-09-27T23:47:19.364Z,56.40
2022-09-27T23:49:46.105Z,56.37
2022-09-27T23:52:12.788Z,56.67
2022-09-27T23:54:39.635Z,56.85
2022-09-27T23:57:06.331Z,56.62
2022-09-27T23:59:33.306Z,56.49
